Time;durP1;ratioP1;P1;durP2;ratioP2;P2;SDS_P1;SDS_P2;PMS_P1;PMS_P2;Temp;Humidity;BMP_temperature;BMP_pressure;BME280_temperature;BME280_humidity;BME280_pressure;Samples;Min_cycle;Max_cycle;Signal;HPM_P1;HPM_P2
2021/12/23 00:01:54;;;;;;;37.03;14.43;;;-4.50;84.90;;;;;;6272924;28;20123;-78
2021/12/23 00:04:57;;;;;;;32.17;14.70;;;-4.50;84.50;;;;;;6272566;28;20502;-77
2021/12/23 00:07:59;;;;;;;31.77;13.27;;;-4.50;84.50;;;;;;6272450;28;20048;-77
2021/12/23 00:11:01;;;;;;;34.47;14.20;;;-4.50;84.60;;;;;;6272516;28;20107;-78
2021/12/23 00:14:06;;;;;;;34.63;13.03;;;-4.50;84.60;;;;;;6272005;28;20048;-78
2021/12/23 00:17:20;;;;;;;38.37;15.43;;;-4.50;84.50;;;;;;6271692;28;20506;-78
2021/12/23 00:23:45;;;;;;;39.53;14.43;;;-4.50;84.60;;;;;;6273161;28;20057;-78
2021/12/23 00:26:46;;;;;;;37.50;13.57;;;-4.50;84.40;;;;;;6275922;28;20115;-78
2021/12/23 00:29:48;;;;;;;31.00;14.63;;;-4.60;84.40;;;;;;6273168;28;20128;-79
2021/12/23 00:32:50;;;;;;;37.53;14.77;;;-4.60;84.60;;;;;;6272078;28;20056;-78
2021/12/23 00:35:54;;;;;;;38.33;15.17;;;-4.50;84.60;;;;;;6273056;28;20136;-78
2021/12/23 00:38:56;;;;;;;32.13;14.43;;;-4.50;84.50;;;;;;6272752;28;20053;-78
2021/12/23 00:42:06;;;;;;;50.13;16.93;;;-4.50;84.60;;;;;;6271693;28;20047;-78
2021/12/23 00:45:08;;;;;;;41.67;15.73;;;-4.50;84.50;;;;;;6272590;28;20124;-79
2021/12/23 00:48:10;;;;;;;36.60;16.30;;;-4.50;84.40;;;;;;6271752;28;20120;-78
2021/12/23 00:51:14;;;;;;;34.33;13.13;;;-4.50;84.40;;;;;;6272705;28;20427;-79
2021/12/23 00:54:16;;;;;;;33.53;13.13;;;-4.50;84.20;;;;;;6271010;28;20044;-78
2021/12/23 00:57:22;;;;;;;30.30;13.93;;;-4.50;84.10;;;;;;6270447;28;20414;-79
2021/12/23 01:00:24;;;;;;;31.60;14.10;;;-4.50;84.20;;;;;;6271300;28;20045;-79
2021/12/23 01:03:26;;;;;;;33.03;10.77;;;-4.50;84.20;;;;;;6272374;28;20049;-79
2021/12/23 01:06:29;;;;;;;32.83;12.77;;;-4.40;84.30;;;;;;6271638;28;20576;-79
2021/12/23 01:09:30;;;;;;;35.77;13.10;;;-4.40;84.20;;;;;;6271326;28;20049;-78
2021/12/23 01:12:38;;;;;;;32.77;14.53;;;-4.30;84.20;;;;;;6271094;28;20041;-78
2021/12/23 01:19:03;;;;;;;32.63;12.80;;;-4.30;84.00;;;;;;6247492;28;20464;-78
2021/12/23 01:22:06;;;;;;;38.23;11.63;;;-4.20;83.90;;;;;;6248466;28;20144;-78
2021/12/23 01:25:09;;;;;;;38.03;13.67;;;-4.10;83.80;;;;;;6251320;28;20128;-78
2021/12/23 01:28:11;;;;;;;37.00;13.70;;;-4.00;83.70;;;;;;6252129;28;20033;-79
2021/12/23 01:31:13;;;;;;;27.73;9.60;;;-3.90;83.70;;;;;;6252789;28;20064;-77
2021/12/23 01:34:15;;;;;;;26.77;12.03;;;-3.80;83.40;;;;;;6251278;28;20063;-78
2021/12/23 01:37:18;;;;;;;32.37;14.10;;;-3.80;83.20;;;;;;6251609;28;20525;-77
2021/12/23 01:40:21;;;;;;;32.73;12.80;;;-3.70;83.20;;;;;;6251665;28;20119;-78
2021/12/23 01:43:23;;;;;;;42.13;13.70;;;-3.70;83.50;;;;;;6251412;28;20088;-77
2021/12/23 01:46:25;;;;;;;38.53;13.77;;;-3.70;83.40;;;;;;6250226;28;20102;-78
2021/12/23 01:49:27;;;;;;;30.23;13.23;;;-3.70;83.50;;;;;;6251459;28;20054;-78
2021/12/23 01:52:30;;;;;;;46.65;15.55;;;-3.60;83.60;;;;;;6250962;28;20052;-78
2021/12/23 01:55:32;;;;;;;34.43;13.13;;;-3.70;83.50;;;;;;6251389;28;20056;-78
2021/12/23 01:58:37;;;;;;;35.87;14.27;;;-3.70;83.70;;;;;;6250669;28;20056;-78
2021/12/23 02:01:41;;;;;;;37.30;15.83;;;-3.70;83.70;;;;;;6251052;28;20045;-78
2021/12/23 02:04:43;;;;;;;43.10;14.53;;;-3.70;83.80;;;;;;6251514;28;20470;-78
2021/12/23 02:07:46;;;;;;;40.43;13.77;;;-3.70;83.90;;;;;;6251646;28;20190;-78
2021/12/23 02:10:48;;;;;;;32.60;12.57;;;-3.70;84.00;;;;;;6251211;28;20052;-78
2021/12/23 02:13:50;;;;;;;39.97;15.00;;;-3.70;84.10;;;;;;6249895;28;20127;-78
2021/12/23 02:16:52;;;;;;;35.60;14.33;;;-3.70;83.90;;;;;;6249682;28;20052;-78
2021/12/23 02:19:56;;;;;;;32.43;13.73;;;-3.70;84.00;;;;;;6250171;28;20053;-78
2021/12/23 02:22:58;;;;;;;39.30;13.53;;;-3.60;84.20;;;;;;6251521;28;20133;-78
2021/12/23 02:26:00;;;;;;;28.67;12.20;;;-3.60;84.10;;;;;;6250426;28;20056;-78
2021/12/23 02:29:01;;;;;;;28.17;14.33;;;-3.60;84.00;;;;;;6248897;28;20434;-78
2021/12/23 02:32:04;;;;;;;36.23;15.33;;;-3.50;83.90;;;;;;6248862;28;20622;-78
2021/12/23 02:35:11;;;;;;;30.03;14.13;;;-3.50;83.90;;;;;;6248888;28;20096;-78
2021/12/23 02:38:13;;;;;;;38.97;13.10;;;-3.50;83.70;;;;;;6249323;28;20464;-78
2021/12/23 02:41:16;;;;;;;41.90;16.50;;;-3.50;83.60;;;;;;6249035;28;20267;-78
2021/12/23 02:44:18;;;;;;;29.10;12.73;;;-3.50;83.40;;;;;;6248775;28;20097;-78
2021/12/23 02:47:20;;;;;;;30.03;13.00;;;-3.50;83.50;;;;;;6249389;28;20056;-78
2021/12/23 02:50:23;;;;;;;40.73;13.67;;;-3.50;83.40;;;;;;6248448;28;20527;-78
2021/12/23 02:53:26;;;;;;;32.63;12.73;;;-3.50;83.30;;;;;;6248834;28;20053;-78
2021/12/23 02:56:28;;;;;;;34.30;13.37;;;-3.50;83.60;;;;;;6248358;28;20046;-78
2021/12/23 02:59:29;;;;;;;27.33;11.80;;;-3.40;83.60;;;;;;6248918;28;20045;-78
2021/12/23 03:02:31;;;;;;;36.50;12.53;;;-3.50;83.60;;;;;;6248390;28;20148;-78
2021/12/23 03:05:34;;;;;;;28.43;13.10;;;-3.50;83.50;;;;;;6247967;28;20055;-78
2021/12/23 03:08:39;;;;;;;39.80;15.18;;;-3.50;83.80;;;;;;6248048;28;20435;-78
2021/12/23 03:11:41;;;;;;;29.90;12.63;;;-3.40;83.80;;;;;;6249068;28;20264;-78
2021/12/23 03:14:43;;;;;;;41.83;14.57;;;-3.40;83.60;;;;;;6247921;28;20054;-78
2021/12/23 03:17:45;;;;;;;34.55;14.38;;;-3.40;83.50;;;;;;6247751;28;20127;-78
2021/12/23 03:20:48;;;;;;;37.33;13.97;;;-3.30;83.60;;;;;;6247812;28;20053;-78
2021/12/23 03:23:51;;;;;;;34.90;13.82;;;-3.30;83.40;;;;;;6248400;28;20054;-78
2021/12/23 03:26:52;;;;;;;32.85;12.43;;;-3.20;83.30;;;;;;6248332;28;20057;-78
2021/12/23 03:29:56;;;;;;;34.55;15.05;;;-3.20;83.20;;;;;;6247569;28;20411;-77
2021/12/23 03:32:58;;;;;;;29.88;14.07;;;-3.10;83.30;;;;;;6247983;28;20045;-78
2021/12/23 03:36:02;;;;;;;43.70;15.55;;;-3.10;83.40;;;;;;6247466;28;20055;-79
2021/12/23 03:39:05;;;;;;;34.95;14.68;;;-3.00;83.60;;;;;;6247603;28;20550;-78
2021/12/23 03:42:08;;;;;;;33.27;14.70;;;-2.90;83.60;;;;;;6247299;28;20176;-78
2021/12/23 03:45:10;;;;;;;35.55;16.67;;;-2.90;83.30;;;;;;6245843;28;20551;-78
2021/12/23 03:48:13;;;;;;;33.50;13.25;;;-2.80;83.50;;;;;;6247163;28;20045;-78
2021/12/23 03:51:16;;;;;;;23.98;12.07;;;-2.80;83.40;;;;;;6247859;28;20069;-78
2021/12/23 03:54:18;;;;;;;34.42;16.13;;;-2.80;83.80;;;;;;6246864;28;20049;-79
2021/12/23 03:57:19;;;;;;;41.30;15.75;;;-2.90;83.20;;;;;;6247662;28;20045;-79
2021/12/23 04:00:23;;;;;;;32.28;14.48;;;-3.00;83.30;;;;;;6247196;28;20068;-79
2021/12/23 04:03:25;;;;;;;32.13;12.98;;;-3.10;83.60;;;;;;6247242;28;20526;-78
2021/12/23 04:06:28;;;;;;;30.98;13.60;;;-3.20;83.90;;;;;;6246401;28;20596;-78
2021/12/23 04:09:30;;;;;;;38.28;15.70;;;-3.20;84.10;;;;;;6247091;28;20056;-78
2021/12/23 04:12:31;;;;;;;31.33;13.23;;;-3.20;83.80;;;;;;6246845;28;20124;-79
2021/12/23 04:15:33;;;;;;;34.10;13.25;;;-3.30;83.90;;;;;;6247712;28;20077;-78
2021/12/23 04:18:35;;;;;;;35.07;13.43;;;-3.40;84.00;;;;;;6247350;28;20045;-78
2021/12/23 04:21:40;;;;;;;30.05;12.75;;;-3.50;84.20;;;;;;6246969;28;20045;-78
2021/12/23 04:24:42;;;;;;;37.50;14.40;;;-3.60;84.30;;;;;;6246456;28;20046;-78
2021/12/23 04:27:47;;;;;;;35.27;14.03;;;-3.60;84.40;;;;;;6247155;28;20052;-78
2021/12/23 04:30:49;;;;;;;30.13;12.97;;;-3.50;84.50;;;;;;6246822;28;20414;-78
2021/12/23 04:33:53;;;;;;;31.93;13.77;;;-3.50;84.30;;;;;;6246360;28;20055;-78
2021/12/23 04:36:56;;;;;;;32.97;13.03;;;-3.50;84.30;;;;;;6246351;28;20041;-79
2021/12/23 04:39:58;;;;;;;36.10;14.70;;;-3.50;84.30;;;;;;6247688;28;20134;-78
2021/12/23 04:43:00;;;;;;;30.83;13.50;;;-3.50;84.50;;;;;;6247801;28;20095;-78
2021/12/23 04:46:02;;;;;;;46.40;15.85;;;-3.50;84.60;;;;;;6246976;28;20065;-79
2021/12/23 04:49:04;;;;;;;37.23;14.13;;;-3.40;84.50;;;;;;6248881;28;20128;-78
2021/12/23 04:52:08;;;;;;;30.63;13.40;;;-3.40;84.60;;;;;;6250593;28;20064;-78
2021/12/23 04:55:11;;;;;;;37.37;12.53;;;-3.30;84.40;;;;;;6247908;28;20052;-78
2021/12/23 04:58:13;;;;;;;32.47;12.77;;;-3.30;84.40;;;;;;6251262;28;20044;-80
2021/12/23 05:01:20;;;;;;;40.08;16.92;;;-3.20;84.20;;;;;;6251262;28;20092;-79
2021/12/23 05:04:22;;;;;;;32.17;12.83;;;-3.10;84.20;;;;;;6250927;28;20055;-79
2021/12/23 05:07:25;;;;;;;26.17;11.63;;;-3.20;84.10;;;;;;6251620;28;20331;-78
2021/12/23 05:10:27;;;;;;;41.40;12.90;;;-3.20;84.00;;;;;;6250590;28;20088;-78
2021/12/23 05:13:29;;;;;;;29.63;12.25;;;-3.20;84.10;;;;;;6250816;28;20127;-78
2021/12/23 05:16:30;;;;;;;30.80;12.82;;;-3.20;84.50;;;;;;6250730;28;20494;-78
2021/12/23 05:19:32;;;;;;;33.70;12.82;;;-3.10;84.40;;;;;;6251555;28;20132;-79
2021/12/23 05:22:35;;;;;;;32.33;12.70;;;-3.10;84.10;;;;;;6250681;28;20045;-78
2021/12/23 05:25:37;;;;;;;29.45;14.50;;;-3.00;84.00;;;;;;6250209;28;20507;-78
2021/12/23 05:28:39;;;;;;;26.98;11.73;;;-3.00;84.10;;;;;;6250583;28;20052;-79
2021/12/23 05:31:41;;;;;;;28.92;13.05;;;-2.90;84.20;;;;;;6251028;28;20222;-79
2021/12/23 05:34:43;;;;;;;27.75;13.10;;;-3.00;84.00;;;;;;6250218;28;20427;-79
2021/12/23 05:37:46;;;;;;;28.92;12.35;;;-3.10;83.80;;;;;;6250137;28;20489;-78
2021/12/23 05:40:48;;;;;;;23.55;11.02;;;-3.10;84.10;;;;;;6250022;28;20175;-78
2021/12/23 05:43:50;;;;;;;31.10;12.32;;;-3.20;84.30;;;;;;6250073;28;20052;-78
2021/12/23 05:46:52;;;;;;;28.17;12.43;;;-3.20;84.60;;;;;;6250234;28;20411;-78
2021/12/23 05:49:54;;;;;;;31.65;11.63;;;-3.10;84.90;;;;;;6250054;28;20049;-78
2021/12/23 05:52:57;;;;;;;34.45;15.13;;;-3.00;85.00;;;;;;6249862;28;20418;-79
2021/12/23 05:55:59;;;;;;;30.73;13.68;;;-2.90;84.80;;;;;;6249395;28;20388;-78
2021/12/23 05:59:00;;;;;;;28.35;11.68;;;-3.00;84.50;;;;;;6250359;28;20131;-79
2021/12/23 06:02:06;;;;;;;33.42;11.95;;;-3.00;84.80;;;;;;6249694;28;20522;-78
2021/12/23 06:05:08;;;;;;;36.60;14.98;;;-3.00;85.60;;;;;;6249543;28;20068;-79
2021/12/23 06:08:12;;;;;;;26.30;12.00;;;-3.10;85.60;;;;;;6248644;28;20048;-78
2021/12/23 06:11:13;;;;;;;42.90;12.85;;;-3.10;85.60;;;;;;6250006;28;20179;-78
2021/12/23 06:14:16;;;;;;;31.77;11.95;;;-3.10;85.60;;;;;;6249221;28;20050;-77
2021/12/23 06:17:18;;;;;;;24.75;11.32;;;-3.10;85.70;;;;;;6249109;28;20579;-78
2021/12/23 06:20:19;;;;;;;29.85;11.18;;;-3.10;85.50;;;;;;6249124;28;20037;-78
2021/12/23 06:23:22;;;;;;;31.00;11.32;;;-3.10;85.70;;;;;;6250019;28;20056;-78
2021/12/23 06:26:24;;;;;;;32.27;11.70;;;-3.10;85.80;;;;;;6248702;28;20045;-78
2021/12/23 06:29:26;;;;;;;29.45;12.15;;;-3.10;85.60;;;;;;6248896;28;20045;-77
2021/12/23 06:32:28;;;;;;;29.45;12.02;;;-3.10;85.50;;;;;;6249512;28;20095;-79
2021/12/23 06:35:31;;;;;;;26.48;11.10;;;-3.00;85.40;;;;;;6249603;28;20052;-79
2021/12/23 06:38:35;;;;;;;28.15;13.57;;;-3.00;85.30;;;;;;6249641;28;20053;-79
2021/12/23 06:41:37;;;;;;;40.80;12.85;;;-3.10;85.00;;;;;;6267050;28;20041;-79
2021/12/23 06:44:39;;;;;;;24.60;11.75;;;-3.10;85.00;;;;;;6274062;28;20051;-79
2021/12/23 06:47:41;;;;;;;35.13;13.65;;;-3.10;85.20;;;;;;6275310;28;20132;-79
2021/12/23 06:50:43;;;;;;;27.52;11.20;;;-3.10;85.40;;;;;;6273500;28;20124;-78
2021/12/23 06:53:46;;;;;;;30.73;11.98;;;-3.10;85.40;;;;;;6275018;28;20057;-78
2021/12/23 06:56:48;;;;;;;36.15;13.85;;;-3.00;85.30;;;;;;6273571;28;20551;-78
2021/12/23 06:59:50;;;;;;;28.40;11.93;;;-2.90;85.10;;;;;;6273994;28;20088;-78
2021/12/23 07:02:53;;;;;;;32.78;12.93;;;-2.80;84.70;;;;;;6275134;28;20534;-78
2021/12/23 07:06:03;;;;;;;30.13;12.70;;;-2.70;84.90;;;;;;6273337;28;20049;-79
2021/12/23 07:09:07;;;;;;;28.30;11.65;;;-2.80;84.70;;;;;;6273413;28;20049;-78
2021/12/23 07:12:11;;;;;;;29.50;11.13;;;-2.80;84.60;;;;;;6272947;28;20072;-79
2021/12/23 07:15:13;;;;;;;30.20;11.30;;;-2.90;84.60;;;;;;6273600;28;20053;-79
2021/12/23 07:18:15;;;;;;;32.47;13.45;;;-2.90;86.00;;;;;;6272367;28;20049;-79
2021/12/23 07:21:17;;;;;;;25.95;12.02;;;-2.90;85.20;;;;;;6272307;28;20167;-80
2021/12/23 07:24:20;;;;;;;29.88;13.38;;;-3.00;85.00;;;;;;6272763;28;20080;-80
2021/12/23 07:27:22;;;;;;;34.65;15.02;;;-3.00;86.10;;;;;;6273372;28;20131;-79
2021/12/23 07:30:24;;;;;;;29.92;14.00;;;-2.90;86.40;;;;;;6273219;28;20045;-78
2021/12/23 07:33:26;;;;;;;30.65;12.18;;;-2.90;85.80;;;;;;6272852;28;20127;-79
2021/12/23 07:36:28;;;;;;;27.27;11.25;;;-2.80;85.60;;;;;;6272172;28;20052;-79
2021/12/23 07:39:31;;;;;;;31.48;11.63;;;-2.80;85.50;;;;;;6273007;28;20091;-79
2021/12/23 07:42:34;;;;;;;27.55;10.95;;;-2.70;85.50;;;;;;6272183;28;20055;-79
2021/12/23 07:45:37;;;;;;;24.48;11.15;;;-2.60;84.80;;;;;;6272489;28;20538;-79
2021/12/23 07:48:39;;;;;;;29.30;12.32;;;-2.40;84.60;;;;;;6272933;28;20041;-79
2021/12/23 07:51:41;;;;;;;32.50;13.25;;;-2.30;84.50;;;;;;6273053;28;20187;-79
2021/12/23 07:54:44;;;;;;;23.30;11.40;;;-2.30;84.20;;;;;;6273657;28;20045;-79
2021/12/23 07:57:46;;;;;;;30.50;14.40;;;-2.20;84.00;;;;;;6274216;28;20047;-78
2021/12/23 08:00:47;;;;;;;23.73;11.13;;;-2.10;83.60;;;;;;6271290;28;20474;-78
2021/12/23 08:03:49;;;;;;;22.70;11.02;;;-2.00;83.50;;;;;;6271944;28;20048;-78
2021/12/23 08:06:55;;;;;;;26.95;11.18;;;-2.00;84.20;;;;;;6272039;28;20051;-78
2021/12/23 08:09:58;;;;;;;26.17;9.48;;;-1.90;83.60;;;;;;6273156;28;20412;-79
2021/12/23 08:13:07;;;;;;;24.38;10.73;;;-1.70;83.60;;;;;;6246698;28;20059;-78
2021/12/23 08:16:09;;;;;;;31.63;11.75;;;-1.60;83.40;;;;;;6267578;28;20041;-77
2021/12/23 08:19:11;;;;;;;33.28;12.48;;;-1.50;83.20;;;;;;6273840;28;20055;-78
2021/12/23 08:22:12;;;;;;;20.73;10.93;;;-1.40;83.00;;;;;;6272196;28;20128;-79
2021/12/23 08:25:16;;;;;;;28.77;11.27;;;-1.30;83.10;;;;;;6274965;28;20475;-79
2021/12/23 08:28:18;;;;;;;30.83;12.70;;;-1.30;83.10;;;;;;6276937;28;20037;-78
2021/12/23 08:31:21;;;;;;;32.20;12.52;;;-1.20;83.20;;;;;;6273742;28;20057;-79
2021/12/23 08:34:24;;;;;;;25.52;10.90;;;-1.00;83.10;;;;;;6271534;28;20465;-78
2021/12/23 08:37:26;;;;;;;35.15;11.18;;;-0.80;82.90;;;;;;6274763;28;20065;-78
2021/12/23 08:40:30;;;;;;;28.80;11.98;;;-0.70;83.50;;;;;;6272700;28;20051;-78
2021/12/23 08:43:32;;;;;;;39.20;13.15;;;-0.50;83.70;;;;;;6274673;28;20132;-78
2021/12/23 08:46:33;;;;;;;29.27;13.10;;;-0.40;83.60;;;;;;6271524;28;20107;-78
2021/12/23 08:49:35;;;;;;;24.55;11.65;;;-0.20;83.60;;;;;;6272898;28;20605;-80
2021/12/23 08:52:38;;;;;;;29.38;10.45;;;-0.10;83.30;;;;;;6278873;28;20041;-79
2021/12/23 08:55:41;;;;;;;29.73;12.52;;;0.10;83.80;;;;;;6278420;28;20129;-77
2021/12/23 08:58:43;;;;;;;26.70;11.90;;;0.20;83.60;;;;;;6274010;28;20041;-79
2021/12/23 09:01:46;;;;;;;45.45;12.63;;;0.40;83.40;;;;;;6263880;28;20053;-78
2021/12/23 09:04:48;;;;;;;26.05;12.15;;;0.50;83.00;;;;;;6270712;28;20127;-78
2021/12/23 09:07:50;;;;;;;31.48;12.75;;;0.60;82.80;;;;;;6272046;28;20047;-79
2021/12/23 09:10:53;;;;;;;27.48;12.82;;;0.80;82.30;;;;;;6270786;28;20059;-78
2021/12/23 09:13:55;;;;;;;25.15;11.93;;;0.90;82.30;;;;;;6273859;28;20051;-79
2021/12/23 09:16:57;;;;;;;34.53;12.85;;;1.00;82.40;;;;;;6271923;28;20174;-79
2021/12/23 09:19:59;;;;;;;33.33;12.77;;;1.10;82.30;;;;;;6269622;28;20758;-78
2021/12/23 09:23:02;;;;;;;31.42;13.23;;;1.20;82.30;;;;;;6271387;28;20045;-78
2021/12/23 09:26:09;;;;;;;30.17;14.10;;;1.40;82.00;;;;;;6269485;28;20052;-78
2021/12/23 09:29:16;;;;;;;30.15;14.23;;;1.60;81.60;;;;;;6270253;28;20128;-80
2021/12/23 09:35:38;;;;;;;37.67;14.15;;;1.70;81.70;;;;;;6270112;28;20053;-77
2021/12/23 09:38:41;;;;;;;29.52;13.50;;;1.80;81.70;;;;;;6269694;28;20056;-77
2021/12/23 09:41:45;;;;;;;31.85;14.57;;;1.90;81.30;;;;;;6270118;28;20518;-77
2021/12/23 09:44:53;;;;;;;43.38;16.58;;;2.00;81.30;;;;;;6273265;28;20049;-77
2021/12/23 09:47:56;;;;;;;44.42;18.10;;;2.10;81.10;;;;;;6274485;28;20048;-77
2021/12/23 09:51:01;;;;;;;40.08;14.50;;;2.10;81.10;;;;;;6274585;28;20049;-77
2021/12/23 09:54:06;;;;;;;41.13;18.15;;;2.10;81.50;;;;;;6277769;28;20056;-77
2021/12/23 09:57:09;;;;;;;40.08;18.10;;;2.10;81.40;;;;;;6273702;28;20138;-77
2021/12/23 10:00:12;;;;;;;37.00;15.60;;;2.10;81.80;;;;;;6273643;28;20052;-78
2021/12/23 10:03:15;;;;;;;42.08;15.57;;;2.20;82.00;;;;;;6273789;28;20064;-80
2021/12/23 10:06:17;;;;;;;40.97;16.27;;;2.30;82.00;;;;;;6273458;28;20045;-78
2021/12/23 10:09:36;;;;;;;43.45;18.05;;;2.30;81.70;;;;;;6273329;28;20094;-78
2021/12/23 10:39:47;;;;;;;42.60;18.00;;;3.70;79.50;;;;;;6273887;28;20057;-77
2021/12/23 10:42:52;;;;;;;41.05;17.95;;;3.60;79.10;;;;;;6273474;28;20048;-78
2021/12/23 10:45:58;;;;;;;37.85;16.73;;;3.50;79.50;;;;;;6272365;28;20059;-77
2021/12/23 10:49:15;;;;;;;38.03;17.90;;;3.60;79.80;;;;;;6272585;28;20053;-77
2021/12/23 10:52:24;;;;;;;45.20;18.00;;;3.60;79.80;;;;;;6272510;28;20514;-77
2021/12/23 10:59:01;;;;;;;37.33;17.67;;;3.60;79.70;;;;;;6272894;28;20506;-79
2021/12/23 11:02:08;;;;;;;;;;;3.60;79.70;;;;;;6272585;28;20045;-79
2021/12/23 11:05:16;;;;;;;46.50;18.30;;;3.60;79.50;;;;;;6272646;28;20516;-79
2021/12/23 11:08:26;;;;;;;39.50;17.73;;;3.60;79.40;;;;;;6275696;28;20518;-78
2021/12/23 11:11:48;;;;;;;39.50;18.73;;;3.60;79.70;;;;;;6273294;28;20132;-78
2021/12/23 11:28:59;;;;;;;51.95;18.92;;;4.00;80.00;;;;;;6277134;28;20041;-79
2021/12/23 11:35:48;;;;;;;42.22;18.40;;;4.10;80.10;;;;;;6238743;28;20057;-79
2021/12/23 11:39:03;;;;;;;40.38;19.00;;;4.00;80.00;;;;;;6277336;28;20056;-78
2021/12/23 11:42:15;;;;;;;49.28;19.00;;;4.10;80.50;;;;;;6279502;28;20053;-80
2021/12/23 11:45:17;;;;;;;68.47;18.33;;;4.20;80.50;;;;;;6278288;28;20117;-80
2021/12/23 11:48:19;;;;;;;42.70;18.10;;;4.30;80.70;;;;;;6277455;28;20146;-78
2021/12/23 11:51:30;;;;;;;40.47;16.17;;;4.30;81.30;;;;;;6276563;28;20499;-78
2021/12/23 11:54:35;;;;;;;55.28;22.70;;;4.40;83.50;;;;;;6275326;28;20530;-80
2021/12/23 11:57:39;;;;;;;45.47;20.73;;;4.70;82.70;;;;;;6278816;28;20041;-79
2021/12/23 12:00:42;;;;;;;49.42;20.83;;;4.80;81.30;;;;;;6276895;28;20147;-79
2021/12/23 12:03:59;;;;;;;46.97;19.88;;;4.90;80.80;;;;;;6274222;28;20499;-80
2021/12/23 12:07:12;;;;;;;40.55;17.67;;;5.00;80.90;;;;;;6276162;28;20177;-80
2021/12/23 12:10:21;;;;;;;45.70;20.02;;;5.10;80.30;;;;;;6276010;28;20053;-81
2021/12/23 12:13:32;;;;;;;49.28;20.65;;;5.30;80.20;;;;;;6277464;28;20106;-80
2021/12/23 12:16:36;;;;;;;44.45;18.30;;;5.60;79.80;;;;;;6275665;28;20037;-81
2021/12/23 12:19:52;;;;;;;43.17;16.95;;;5.70;79.00;;;;;;6276523;28;20496;-81
2021/12/23 12:23:05;;;;;;;35.78;17.40;;;5.80;78.30;;;;;;6276893;28;20095;-81
2021/12/23 12:26:10;;;;;;;52.90;19.30;;;5.80;77.90;;;;;;6275914;28;20049;-81
2021/12/23 12:29:13;;;;;;;48.05;18.13;;;5.80;78.20;;;;;;6277048;28;20053;-80
2021/12/23 12:32:36;;;;;;;48.53;21.63;;;5.80;78.20;;;;;;6277024;28;20048;-81
2021/12/23 12:35:39;;;;;;;42.95;18.58;;;5.80;78.10;;;;;;6277947;28;20139;-81
2021/12/23 12:38:45;;;;;;;44.65;18.88;;;5.70;77.80;;;;;;6277378;28;20055;-81
2021/12/23 12:41:47;;;;;;;45.53;19.67;;;5.70;78.20;;;;;;6276336;28;20048;-79
2021/12/23 12:44:54;;;;;;;42.58;19.70;;;5.60;78.20;;;;;;6274957;28;20525;-82
2021/12/23 12:48:00;;;;;;;43.60;18.23;;;5.60;78.60;;;;;;6276393;28;20095;-82
2021/12/23 12:51:03;;;;;;;41.10;19.38;;;5.60;78.50;;;;;;6277466;28;20049;-80
2021/12/23 12:54:09;;;;;;;38.35;17.00;;;5.50;78.70;;;;;;6274363;28;20178;-80
2021/12/23 12:57:11;;;;;;;46.75;19.65;;;5.40;78.90;;;;;;6269986;28;20514;-78
2021/12/23 13:00:21;;;;;;;43.83;17.77;;;5.30;79.30;;;;;;6269847;28;20041;-79
2021/12/23 13:03:25;;;;;;;48.88;18.42;;;5.30;79.70;;;;;;6271673;28;20071;-77
2021/12/23 13:06:35;;;;;;;47.63;19.58;;;5.30;80.10;;;;;;6269472;28;20124;-77
2021/12/23 13:09:52;;;;;;;42.20;18.58;;;5.30;80.10;;;;;;6271375;28;20049;-81
2021/12/23 13:12:55;;;;;;;50.17;20.40;;;5.50;82.40;;;;;;6248166;28;20461;-77
2021/12/23 13:16:00;;;;;;;41.00;17.92;;;5.60;81.50;;;;;;6263011;28;20561;-78
2021/12/23 13:19:13;;;;;;;38.92;18.10;;;5.80;83.50;;;;;;6277176;28;20041;-79
2021/12/23 13:22:18;;;;;;;43.50;18.02;;;5.90;81.60;;;;;;6276490;28;20047;-78
2021/12/23 13:25:22;;;;;;;41.33;18.17;;;5.90;80.80;;;;;;6276403;28;20041;-78
2021/12/23 13:28:36;;;;;;;35.25;16.15;;;5.90;80.80;;;;;;6277871;28;20076;-80
2021/12/23 13:31:39;;;;;;;36.88;17.52;;;5.90;80.60;;;;;;6277129;28;20080;-79
2021/12/23 13:34:41;;;;;;;39.58;17.08;;;5.80;80.50;;;;;;6276444;28;20045;-79
2021/12/23 13:37:44;;;;;;;38.42;17.40;;;5.70;80.60;;;;;;6275952;28;20079;-79
2021/12/23 13:40:49;;;;;;;48.00;18.55;;;5.70;80.80;;;;;;6276665;28;20055;-78
2021/12/23 13:43:52;;;;;;;42.17;17.60;;;5.70;80.70;;;;;;6276427;28;20052;-79
2021/12/23 13:47:04;;;;;;;37.88;17.48;;;5.70;80.70;;;;;;6276369;28;20052;-78
2021/12/23 13:50:08;;;;;;;41.70;16.42;;;5.70;80.80;;;;;;6275512;28;20514;-77
2021/12/23 13:53:15;;;;;;;34.30;16.60;;;5.70;80.80;;;;;;6275594;28;20048;-78
2021/12/23 13:56:19;;;;;;;27.85;13.77;;;5.70;81.00;;;;;;6275462;28;20047;-80
2021/12/23 13:59:23;;;;;;;40.08;16.15;;;5.60;81.10;;;;;;6276218;28;20491;-78
2021/12/23 14:02:26;;;;;;;39.83;16.38;;;5.60;81.20;;;;;;6274747;28;20417;-78
2021/12/23 14:05:28;;;;;;;33.30;14.80;;;5.60;81.20;;;;;;6275359;28;20063;-82
2021/12/23 14:08:32;;;;;;;34.25;14.65;;;5.60;81.30;;;;;;6273913;28;20128;-79
2021/12/23 14:11:35;;;;;;;44.55;16.42;;;5.60;81.70;;;;;;6275569;28;20044;-80
2021/12/23 14:14:54;;;;;;;34.58;16.30;;;5.60;81.70;;;;;;6273972;28;20120;-76
2021/12/23 14:18:01;;;;;;;38.30;14.30;;;5.70;81.60;;;;;;6275417;28;20055;-79
2021/12/23 14:24:25;;;;;;;30.45;14.88;;;5.90;81.20;;;;;;6274349;28;20033;-78
2021/12/23 14:27:28;;;;;;;32.75;14.63;;;6.00;81.10;;;;;;6274809;28;20049;-78
2021/12/23 14:30:38;;;;;;;27.35;13.52;;;6.10;80.80;;;;;;6273468;28;20049;-78
2021/12/23 14:33:42;;;;;;;35.30;14.75;;;6.10;80.50;;;;;;6275403;28;20056;-80
2021/12/23 14:36:46;;;;;;;31.77;14.32;;;6.10;80.40;;;;;;6281260;28;20104;-80
2021/12/23 14:39:48;;;;;;;36.83;17.73;;;6.20;80.40;;;;;;6277140;28;20128;-79
2021/12/23 14:42:59;;;;;;;84.10;38.75;;;6.30;80.20;;;;;;6275249;28;20053;-78
2021/12/23 14:46:01;;;;;;;57.13;24.63;;;6.40;80.00;;;;;;6276065;28;20523;-78
2021/12/23 14:49:23;;;;;;;39.63;16.52;;;6.50;79.80;;;;;;6273270;28;20376;-80
2021/12/23 14:52:32;;;;;;;24.48;13.00;;;6.50;79.30;;;;;;6274686;28;20056;-77
2021/12/23 14:55:33;;;;;;;28.55;14.45;;;6.50;79.80;;;;;;6273805;28;20080;-79
2021/12/23 14:58:36;;;;;;;38.33;14.55;;;6.50;79.30;;;;;;6273400;28;20041;-80
2021/12/23 15:01:43;;;;;;;26.38;11.88;;;6.60;79.10;;;;;;6273666;28;20195;-78
2021/12/23 15:05:00;;;;;;;31.17;15.00;;;6.50;79.10;;;;;;6273801;28;20045;-79
2021/12/23 15:08:03;;;;;;;36.45;13.68;;;6.50;78.80;;;;;;6272490;28;20052;-78
2021/12/23 15:11:08;;;;;;;33.55;14.57;;;6.50;78.80;;;;;;6273975;28;20130;-79
2021/12/23 15:14:17;;;;;;;27.92;13.57;;;6.50;79.10;;;;;;6273399;28;20441;-80
2021/12/23 15:17:26;;;;;;;27.13;12.68;;;6.50;79.10;;;;;;6273648;28;20052;-79
2021/12/23 15:20:30;;;;;;;50.25;19.10;;;6.60;78.80;;;;;;6272515;28;20041;-81
2021/12/23 15:23:38;;;;;;;41.25;18.63;;;6.50;78.80;;;;;;6273511;28;20143;-80
2021/12/23 15:26:48;;;;;;;26.83;12.80;;;6.50;78.90;;;;;;6272848;28;20175;-79
2021/12/23 15:29:54;;;;;;;74.40;35.53;;;6.50;78.70;;;;;;6273112;28;20107;-79
2021/12/23 15:32:56;;;;;;;24.92;12.60;;;6.50;78.60;;;;;;6272881;28;20414;-78
2021/12/23 15:36:05;;;;;;;34.45;16.17;;;6.50;78.40;;;;;;6272954;28;20049;-78
2021/12/23 15:39:18;;;;;;;40.50;18.70;;;6.50;78.80;;;;;;6274711;28;20041;-82
2021/12/23 15:42:21;;;;;;;26.45;12.02;;;6.50;78.80;;;;;;6272897;28;20110;-77
2021/12/23 15:45:25;;;;;;;24.33;11.70;;;6.50;78.80;;;;;;6275704;28;20052;-80
2021/12/23 15:48:27;;;;;;;20.77;11.57;;;6.60;78.50;;;;;;6276026;28;20036;-81
2021/12/23 15:51:29;;;;;;;42.30;23.75;;;6.60;78.40;;;;;;6276070;28;20133;-80
2021/12/23 15:54:31;;;;;;;57.20;23.60;;;6.60;78.40;;;;;;6274782;28;20524;-79
2021/12/23 15:57:33;;;;;;;32.28;16.90;;;6.60;79.00;;;;;;6274497;28;20060;-77
2021/12/23 16:00:36;;;;;;;25.23;11.07;;;6.70;78.30;;;;;;6274105;28;20047;-79
2021/12/23 16:03:40;;;;;;;22.60;9.32;;;6.70;78.70;;;;;;6283854;28;20507;-80
2021/12/23 16:10:06;;;;;;;25.08;10.23;;;6.80;77.80;;;;;;6269175;28;20296;-80
2021/12/23 16:13:08;;;;;;;22.70;9.98;;;6.90;77.80;;;;;;6260245;28;20049;-80
2021/12/23 16:16:11;;;;;;;23.73;10.90;;;6.90;77.70;;;;;;6277057;28;20124;-80
2021/12/23 16:19:13;;;;;;;16.90;8.73;;;6.90;77.60;;;;;;6277049;28;20422;-80
2021/12/23 16:22:15;;;;;;;23.70;13.25;;;6.90;77.50;;;;;;6281355;28;20104;-80
2021/12/23 16:25:17;;;;;;;26.60;13.88;;;6.90;77.50;;;;;;6281230;28;20050;-79
2021/12/23 16:28:22;;;;;;;28.58;14.27;;;6.90;77.60;;;;;;6279482;28;20116;-79
2021/12/23 16:31:28;;;;;;;21.63;12.50;;;7.00;77.60;;;;;;6283849;28;20052;-79
2021/12/23 16:34:30;;;;;;;57.38;26.80;;;7.00;77.40;;;;;;6281482;28;20052;-80
2021/12/23 16:37:32;;;;;;;25.15;12.55;;;7.00;77.30;;;;;;6281264;28;20041;-80
2021/12/23 16:40:36;;;;;;;33.58;18.33;;;7.00;77.30;;;;;;6255528;28;20041;-80
2021/12/23 16:43:38;;;;;;;19.30;9.57;;;7.10;77.80;;;;;;6257169;28;20057;-79